Time;durP1;ratioP1;P1;durP2;ratioP2;P2;SDS_P1;SDS_P2;PMS_P1;PMS_P2;Temp;Humidity;BMP_temperature;BMP_pressure;BME280_temperature;BME280_humidity;BME280_pressure;Samples;Min_cycle;Max_cycle;Signal;HPM_P1;HPM_P2
2022/03/17 00:01:58;;;;;;;22.07;19.53;;;;;;;;;;5006025;28;20482;-75
2022/03/17 00:04:25;;;;;;;23.10;19.90;;;;;;;;;;4999063;28;20443;-76
2022/03/17 00:06:52;;;;;;;26.80;21.60;;;;;;;;;;5005560;28;20443;-75
2022/03/17 00:09:20;;;;;;;25.93;21.87;;;;;;;;;;5010935;28;20453;-77
2022/03/17 00:11:47;;;;;;;22.90;20.07;;;;;;;;;;5010974;28;20483;-76
2022/03/17 00:14:16;;;;;;;24.80;19.70;;;;;;;;;;5011526;28;20454;-79
2022/03/17 00:16:43;;;;;;;26.50;21.40;;;;;;;;;;5011353;28;20450;-76
2022/03/17 00:19:10;;;;;;;26.30;21.67;;;;;;;;;;5012258;28;20806;-77
2022/03/17 00:21:37;;;;;;;26.63;22.17;;;;;;;;;;5012802;28;20439;-77
2022/03/17 00:24:06;;;;;;;24.20;21.27;;;;;;;;;;5005684;28;20475;-77
2022/03/17 00:26:34;;;;;;;24.20;20.90;;;;;;;;;;4981727;28;20783;-76
2022/03/17 00:29:02;;;;;;;24.67;20.27;;;;;;;;;;5005781;28;20438;-77
2022/03/17 00:31:31;;;;;;;25.07;21.20;;;;;;;;;;5010553;28;20715;-78
2022/03/17 00:33:58;;;;;;;24.27;21.03;;;;;;;;;;5010707;28;20447;-80
2022/03/17 00:36:25;;;;;;;24.10;20.17;;;;;;;;;;5010948;28;20446;-75
2022/03/17 00:38:53;;;;;;;24.00;20.70;;;;;;;;;;5011164;28;20443;-77
2022/03/17 00:41:20;;;;;;;25.50;21.70;;;;;;;;;;5014525;28;20459;-77
2022/03/17 00:43:47;;;;;;;27.43;20.80;;;;;;;;;;5016792;28;20471;-78
2022/03/17 00:46:14;;;;;;;23.43;19.73;;;;;;;;;;5011565;28;20447;-76
2022/03/17 00:48:43;;;;;;;26.13;21.07;;;;;;;;;;5002492;28;20450;-77
2022/03/17 00:51:10;;;;;;;22.37;19.40;;;;;;;;;;4997744;28;20494;-78
2022/03/17 00:53:37;;;;;;;24.83;21.00;;;;;;;;;;4994960;28;20463;-77
2022/03/17 00:56:05;;;;;;;29.53;22.40;;;;;;;;;;4994869;28;20968;-78
2022/03/17 00:58:32;;;;;;;24.40;19.83;;;;;;;;;;4995059;28;20470;-78
2022/03/17 01:00:59;;;;;;;23.10;20.47;;;;;;;;;;4995187;28;20440;-76
2022/03/17 01:03:27;;;;;;;24.70;21.43;;;;;;;;;;4997404;28;20487;-76
2022/03/17 01:05:55;;;;;;;28.20;22.13;;;;;;;;;;4997635;28;20443;-75
2022/03/17 01:08:22;;;;;;;26.27;22.20;;;;;;;;;;4999014;28;20932;-77
2022/03/17 01:10:49;;;;;;;23.87;20.93;;;;;;;;;;5002079;28;20483;-76
2022/03/17 01:13:17;;;;;;;26.83;19.70;;;;;;;;;;5008466;28;20469;-77
2022/03/17 01:15:44;;;;;;;24.60;22.00;;;;;;;;;;5014194;28;20447;-78
2022/03/17 01:18:11;;;;;;;25.57;20.80;;;;;;;;;;5014260;28;21031;-77
2022/03/17 01:20:38;;;;;;;27.60;20.67;;;;;;;;;;5014327;28;20446;-75
2022/03/17 01:23:07;;;;;;;23.73;20.27;;;;;;;;;;5014465;28;20478;-77
2022/03/17 01:25:34;;;;;;;24.47;20.00;;;;;;;;;;5015268;28;20453;-76
2022/03/17 01:28:01;;;;;;;23.73;19.70;;;;;;;;;;5015939;28;20458;-76
2022/03/17 01:30:28;;;;;;;26.80;21.07;;;;;;;;;;5009977;28;20448;-79
2022/03/17 01:32:56;;;;;;;25.37;19.87;;;;;;;;;;5001636;28;20477;-76
2022/03/17 01:35:23;;;;;;;25.80;22.27;;;;;;;;;;4997660;28;20444;-78
2022/03/17 01:37:50;;;;;;;24.50;19.87;;;;;;;;;;4994178;28;20448;-80
2022/03/17 01:40:18;;;;;;;26.00;21.50;;;;;;;;;;4994014;28;20450;-75
2022/03/17 01:42:46;;;;;;;23.53;20.03;;;;;;;;;;4994085;28;20491;-79
2022/03/17 01:45:15;;;;;;;23.43;20.63;;;;;;;;;;4994775;28;20444;-79
2022/03/17 01:47:42;;;;;;;25.67;20.37;;;;;;;;;;4995276;28;20470;-77
2022/03/17 01:50:11;;;;;;;23.10;20.27;;;;;;;;;;4996179;28;20940;-76
2022/03/17 01:52:39;;;;;;;25.70;21.03;;;;;;;;;;4997237;28;20492;-76
2022/03/17 01:55:07;;;;;;;22.80;20.07;;;;;;;;;;4984224;28;20444;-77
2022/03/17 01:57:36;;;;;;;24.40;20.03;;;;;;;;;;4997264;28;20949;-79
2022/03/17 02:00:06;;;;;;;26.33;20.80;;;;;;;;;;4993902;28;20444;-77
2022/03/17 02:02:35;;;;;;;25.10;21.90;;;;;;;;;;4976699;28;20823;-77
2022/03/17 02:05:03;;;;;;;26.40;21.57;;;;;;;;;;4993833;28;20490;-77
2022/03/17 02:07:30;;;;;;;25.97;21.20;;;;;;;;;;4977183;28;20897;-76
2022/03/17 02:09:57;;;;;;;25.30;21.63;;;;;;;;;;5011160;28;20447;-77
2022/03/17 02:15:08;;;;;;;27.13;19.50;;;;;;;;;;5007953;28;20423;-79
2022/03/17 02:17:39;;;;;;;26.47;22.37;;;;;;;;;;4984587;28;20428;-76
2022/03/17 02:20:08;;;;;;;26.70;22.07;;;;;;;;;;4981803;28;20447;-76
2022/03/17 02:22:38;;;;;;;26.97;21.90;;;;;;;;;;4977881;28;20485;-77
2022/03/17 02:27:49;;;;;;;27.40;22.60;;;;;;;;;;4993707;28;20537;-76
2022/03/17 02:30:17;;;;;;;23.03;19.87;;;;;;;;;;4993303;28;20448;-76
2022/03/17 02:32:45;;;;;;;25.97;21.33;;;;;;;;;;4993944;28;20488;-76
2022/03/17 02:35:12;;;;;;;26.20;22.03;;;;;;;;;;4995251;28;20451;-76
2022/03/17 02:37:40;;;;;;;28.10;21.40;;;;;;;;;;4998548;28;20442;-77
2022/03/17 02:40:10;;;;;;;27.53;22.10;;;;;;;;;;5000859;28;20439;-75
2022/03/17 02:42:37;;;;;;;26.13;22.97;;;;;;;;;;4994785;28;20482;-78
2022/03/17 02:45:06;;;;;;;24.97;22.30;;;;;;;;;;4992820;28;20534;-80
2022/03/17 02:47:33;;;;;;;27.70;21.13;;;;;;;;;;4993002;28;20444;-76
2022/03/17 02:50:00;;;;;;;25.90;21.50;;;;;;;;;;4993574;28;20439;-75
2022/03/17 02:52:28;;;;;;;26.07;21.67;;;;;;;;;;4993562;28;20844;-77
2022/03/17 02:54:56;;;;;;;29.63;23.13;;;;;;;;;;5013331;28;20461;-78
2022/03/17 02:57:24;;;;;;;28.87;22.93;;;;;;;;;;5013092;28;20446;-77
2022/03/17 02:59:52;;;;;;;24.93;21.23;;;;;;;;;;5005647;28;20944;-77
2022/03/17 03:02:19;;;;;;;27.13;21.90;;;;;;;;;;4999051;28;20525;-78
2022/03/17 03:04:47;;;;;;;28.47;23.23;;;;;;;;;;5006816;28;20451;-78
2022/03/17 03:07:14;;;;;;;23.93;20.17;;;;;;;;;;5012130;28;20447;-75
2022/03/17 03:09:41;;;;;;;27.87;23.37;;;;;;;;;;5012192;28;20439;-77
2022/03/17 03:12:09;;;;;;;26.57;22.27;;;;;;;;;;5012331;28;20479;-76
2022/03/17 03:14:38;;;;;;;29.00;22.10;;;;;;;;;;5012282;28;20782;-78
2022/03/17 03:17:06;;;;;;;25.03;21.70;;;;;;;;;;4995529;28;20953;-76
2022/03/17 03:19:33;;;;;;;27.70;22.17;;;;;;;;;;4995677;28;20860;-76
2022/03/17 03:22:01;;;;;;;28.77;22.43;;;;;;;;;;4998133;28;20450;-76
2022/03/17 03:24:28;;;;;;;28.30;24.33;;;;;;;;;;5000033;28;20435;-76
2022/03/17 03:26:55;;;;;;;24.37;21.20;;;;;;;;;;5007597;28;20442;-76
2022/03/17 03:29:23;;;;;;;29.17;22.17;;;;;;;;;;5011901;28;20443;-77
2022/03/17 03:31:51;;;;;;;27.37;23.57;;;;;;;;;;5011940;28;20875;-76
2022/03/17 03:34:19;;;;;;;27.40;21.80;;;;;;;;;;5011910;28;20530;-76
2022/03/17 03:39:27;;;;;;;28.97;22.30;;;;;;;;;;4979902;28;20428;-75
2022/03/17 03:41:54;;;;;;;26.67;21.77;;;;;;;;;;4994024;28;20534;-76
2022/03/17 03:44:22;;;;;;;28.83;23.37;;;;;;;;;;4997424;28;20450;-76
2022/03/17 03:46:49;;;;;;;27.47;23.10;;;;;;;;;;4999488;28;20436;-78
2022/03/17 03:49:17;;;;;;;29.90;24.07;;;;;;;;;;5007563;28;20455;-76
2022/03/17 03:51:44;;;;;;;28.30;23.13;;;;;;;;;;5011107;28;20482;-78
2022/03/17 03:54:16;;;;;;;27.13;23.97;;;;;;;;;;5011320;28;20524;-77
2022/03/17 03:56:44;;;;;;;31.63;24.70;;;;;;;;;;5011319;28;20454;-77
2022/03/17 03:59:15;;;;;;;26.57;21.67;;;;;;;;;;4993744;28;20447;-76
2022/03/17 04:01:42;;;;;;;28.90;24.30;;;;;;;;;;4982849;28;20439;-78
2022/03/17 04:04:09;;;;;;;26.67;23.20;;;;;;;;;;5000098;28;20432;-77
2022/03/17 04:06:39;;;;;;;29.77;24.93;;;;;;;;;;5010655;28;20455;-78
2022/03/17 04:09:06;;;;;;;30.47;23.87;;;;;;;;;;5010856;28;20774;-77
2022/03/17 04:11:33;;;;;;;30.83;25.67;;;;;;;;;;5011081;28;20475;-77
2022/03/17 04:14:00;;;;;;;27.93;23.17;;;;;;;;;;5011733;28;20925;-78
2022/03/17 04:16:28;;;;;;;32.17;26.70;;;;;;;;;;5010963;28;20454;-77
2022/03/17 04:18:55;;;;;;;32.50;25.77;;;;;;;;;;5012959;28;20451;-75
2022/03/17 04:21:22;;;;;;;31.10;26.20;;;;;;;;;;5012878;28;20455;-75
2022/03/17 04:23:50;;;;;;;37.10;25.77;;;;;;;;;;4999704;28;21236;-77
2022/03/17 04:26:17;;;;;;;32.30;27.13;;;;;;;;;;4998852;28;20942;-76
2022/03/17 04:28:45;;;;;;;30.90;25.70;;;;;;;;;;4990869;28;20455;-76
2022/03/17 04:31:13;;;;;;;34.20;27.47;;;;;;;;;;4991334;28;20448;-76
2022/03/17 04:33:40;;;;;;;31.10;25.93;;;;;;;;;;4991174;28;20545;-77
2022/03/17 04:36:10;;;;;;;31.83;26.27;;;;;;;;;;4994232;28;20448;-76
2022/03/17 04:38:38;;;;;;;40.23;29.80;;;;;;;;;;4974876;28;20472;-76
2022/03/17 04:41:08;;;;;;;33.50;26.53;;;;;;;;;;4993296;28;20484;-75
2022/03/17 04:43:35;;;;;;;33.33;25.97;;;;;;;;;;4993046;28;20496;-77
2022/03/17 04:46:02;;;;;;;36.60;28.27;;;;;;;;;;4997989;28;20462;-77
2022/03/17 04:48:29;;;;;;;33.67;27.50;;;;;;;;;;4998504;28;20802;-76
2022/03/17 04:50:56;;;;;;;32.87;28.23;;;;;;;;;;4989960;28;20458;-76
2022/03/17 04:53:32;;;;;;;36.70;28.80;;;;;;;;;;4990000;28;20491;-74
2022/03/17 04:56:00;;;;;;;34.03;26.70;;;;;;;;;;4983485;28;20573;-76
2022/03/17 04:58:29;;;;;;;34.40;27.80;;;;;;;;;;4973926;28;20447;-75
2022/03/17 05:00:57;;;;;;;35.73;28.23;;;;;;;;;;4999894;28;20449;-78
2022/03/17 05:03:24;;;;;;;32.53;27.13;;;;;;;;;;5000856;28;20880;-76
2022/03/17 05:05:51;;;;;;;33.30;26.60;;;;;;;;;;4997817;28;20443;-75
2022/03/17 05:08:18;;;;;;;41.50;27.73;;;;;;;;;;5008472;28;20451;-76
2022/03/17 05:10:47;;;;;;;31.20;25.83;;;;;;;;;;5010476;28;20447;-78
2022/03/17 05:13:16;;;;;;;37.63;29.00;;;;;;;;;;4993025;28;20510;-76
2022/03/17 05:15:45;;;;;;;37.03;29.67;;;;;;;;;;4993380;28;20450;-79
2022/03/17 05:18:12;;;;;;;38.10;27.17;;;;;;;;;;5010018;28;20545;-77
2022/03/17 05:20:40;;;;;;;38.70;29.70;;;;;;;;;;5002695;28;20443;-77
2022/03/17 05:23:08;;;;;;;35.33;27.33;;;;;;;;;;4987450;28;20522;-77
2022/03/17 05:25:36;;;;;;;36.47;28.83;;;;;;;;;;5006527;28;20447;-77
2022/03/17 05:28:03;;;;;;;33.40;26.50;;;;;;;;;;5011029;28;20451;-75
2022/03/17 05:30:31;;;;;;;38.80;29.23;;;;;;;;;;5013937;28;20442;-77
2022/03/17 05:32:59;;;;;;;39.07;29.40;;;;;;;;;;5014666;28;20861;-77
2022/03/17 05:35:27;;;;;;;41.40;30.20;;;;;;;;;;5013741;28;20438;-76
2022/03/17 05:37:54;;;;;;;41.17;30.07;;;;;;;;;;5016038;28;20447;-75
2022/03/17 05:40:23;;;;;;;38.80;29.20;;;;;;;;;;5014656;28;20450;-78
2022/03/17 05:42:50;;;;;;;38.57;28.70;;;;;;;;;;5004675;28;20462;-78
2022/03/17 05:45:18;;;;;;;44.93;30.60;;;;;;;;;;5000426;28;20448;-76
2022/03/17 05:47:46;;;;;;;37.93;29.47;;;;;;;;;;4995512;28;20439;-76
2022/03/17 05:50:15;;;;;;;40.37;29.37;;;;;;;;;;4992687;28;20447;-77
2022/03/17 05:52:43;;;;;;;40.20;29.90;;;;;;;;;;4992789;28;20483;-76
2022/03/17 05:55:10;;;;;;;39.23;29.43;;;;;;;;;;4994691;28;20443;-75
2022/03/17 05:57:37;;;;;;;41.50;31.30;;;;;;;;;;4996451;28;20513;-77
2022/03/17 06:00:05;;;;;;;45.53;31.20;;;;;;;;;;5016330;28;20454;-76
2022/03/17 06:02:33;;;;;;;44.47;30.40;;;;;;;;;;5015852;28;20459;-81
2022/03/17 06:05:00;;;;;;;37.00;26.10;;;;;;;;;;5005725;28;20443;-78
2022/03/17 06:07:36;;;;;;;36.83;25.10;;;;;;;;;;5001013;28;21184;-80
2022/03/17 06:10:03;;;;;;;35.67;22.30;;;;;;;;;;4994413;28;20452;-79
2022/03/17 06:12:31;;;;;;;26.13;20.23;;;;;;;;;;4993388;28;20480;-76
2022/03/17 06:14:58;;;;;;;25.40;19.97;;;;;;;;;;4993862;28;21007;-77
2022/03/17 06:17:36;;;;;;;29.33;21.10;;;;;;;;;;4994145;28;20450;-77
2022/03/17 06:20:04;;;;;;;29.10;21.13;;;;;;;;;;4993521;28;20492;-76
2022/03/17 06:22:32;;;;;;;35.97;23.00;;;;;;;;;;4999767;28;20475;-77
2022/03/17 06:24:59;;;;;;;34.30;24.70;;;;;;;;;;5000655;28;20811;-76
2022/03/17 06:27:27;;;;;;;34.80;24.13;;;;;;;;;;5011986;28;20446;-79
2022/03/17 06:29:54;;;;;;;38.43;25.77;;;;;;;;;;5012464;28;20963;-75
2022/03/17 06:32:21;;;;;;;37.80;25.93;;;;;;;;;;5012793;28;20483;-75
2022/03/17 06:34:48;;;;;;;38.60;25.70;;;;;;;;;;5013315;28;21015;-77
2022/03/17 06:37:15;;;;;;;40.97;26.10;;;;;;;;;;5012954;28;20458;-76
2022/03/17 06:39:44;;;;;;;43.37;26.40;;;;;;;;;;5014412;28;20477;-76
2022/03/17 06:42:11;;;;;;;44.13;29.47;;;;;;;;;;5014665;28;20474;-75
2022/03/17 06:44:38;;;;;;;47.00;30.17;;;;;;;;;;5002711;28;20937;-78
2022/03/17 06:47:05;;;;;;;44.50;27.87;;;;;;;;;;5000550;28;20447;-75
2022/03/17 06:49:33;;;;;;;49.60;29.00;;;;;;;;;;5011834;28;20453;-79
2022/03/17 06:52:00;;;;;;;59.43;36.10;;;;;;;;;;5011503;28;20463;-76
2022/03/17 06:54:27;;;;;;;60.87;35.90;;;;;;;;;;5012031;28;20480;-78
2022/03/17 06:56:55;;;;;;;59.73;34.50;;;;;;;;;;5012751;28;20565;-76
2022/03/17 06:59:23;;;;;;;59.47;35.03;;;;;;;;;;5012412;28;20459;-75
2022/03/17 07:01:50;;;;;;;58.07;36.83;;;;;;;;;;5002990;28;20478;-80
2022/03/17 07:04:17;;;;;;;62.53;36.67;;;;;;;;;;4999857;28;20439;-77
2022/03/17 07:06:44;;;;;;;58.23;32.93;;;;;;;;;;5010322;28;20522;-80
2022/03/17 07:09:11;;;;;;;58.07;34.40;;;;;;;;;;5011988;28;20451;-79
2022/03/17 07:11:38;;;;;;;47.53;28.23;;;;;;;;;;5011933;28;20439;-77
2022/03/17 07:14:07;;;;;;;40.60;25.33;;;;;;;;;;5012482;28;20486;-78
2022/03/17 07:16:34;;;;;;;37.40;24.33;;;;;;;;;;5012098;28;20940;-78
2022/03/17 07:19:01;;;;;;;38.20;23.97;;;;;;;;;;5003361;28;20443;-78
2022/03/17 07:21:28;;;;;;;36.27;22.97;;;;;;;;;;4999901;28;20452;-79
2022/03/17 07:23:55;;;;;;;31.87;20.63;;;;;;;;;;4992973;28;20476;-78
2022/03/17 07:26:23;;;;;;;34.83;20.50;;;;;;;;;;4991957;28;20470;-75
2022/03/17 07:28:50;;;;;;;31.03;18.13;;;;;;;;;;4992301;28;20452;-77
2022/03/17 07:31:18;;;;;;;38.43;18.93;;;;;;;;;;4975251;28;20447;-74
2022/03/17 07:33:46;;;;;;;32.80;20.53;;;;;;;;;;4991643;28;20487;-77
2022/03/17 07:36:13;;;;;;;31.57;20.23;;;;;;;;;;4996527;28;20443;-75
2022/03/17 07:38:40;;;;;;;30.27;18.50;;;;;;;;;;4999686;28;20438;-76
2022/03/17 07:41:07;;;;;;;31.83;20.87;;;;;;;;;;4994552;28;20448;-79
2022/03/17 07:43:34;;;;;;;31.00;20.30;;;;;;;;;;4991825;28;20554;-77
2022/03/17 07:46:02;;;;;;;29.67;19.63;;;;;;;;;;4991863;28;20532;-78
2022/03/17 07:48:30;;;;;;;27.83;18.60;;;;;;;;;;4991984;28;20451;-81
2022/03/17 07:50:57;;;;;;;24.93;18.33;;;;;;;;;;4991575;28;20953;-77
2022/03/17 07:53:24;;;;;;;26.73;17.80;;;;;;;;;;4993483;28;20846;-77
2022/03/17 07:55:55;;;;;;;28.97;18.13;;;;;;;;;;4994000;28;20444;-77
2022/03/17 07:58:23;;;;;;;22.93;16.97;;;;;;;;;;4996593;28;20864;-78
2022/03/17 08:00:51;;;;;;;29.23;17.47;;;;;;;;;;4999212;28;20435;-79
2022/03/17 08:03:18;;;;;;;24.03;17.33;;;;;;;;;;4994107;28;20832;-75
2022/03/17 08:05:47;;;;;;;21.77;16.67;;;;;;;;;;4991655;28;20842;-77
2022/03/17 08:08:14;;;;;;;24.03;15.73;;;;;;;;;;4991660;28;20451;-75
2022/03/17 08:10:42;;;;;;;20.57;14.23;;;;;;;;;;4991760;28;20447;-79
2022/03/17 08:13:09;;;;;;;14.43;11.50;;;;;;;;;;4974359;28;20487;-76
2022/03/17 08:15:37;;;;;;;14.07;12.43;;;;;;;;;;5012620;28;20446;-80
2022/03/17 08:18:04;;;;;;;13.20;10.20;;;;;;;;;;4996029;28;20908;-78
2022/03/17 08:20:32;;;;;;;23.10;12.60;;;;;;;;;;5006919;28;20439;-77
2022/03/17 08:23:00;;;;;;;15.00;12.30;;;;;;;;;;4998584;28;20474;-77
2022/03/17 08:25:27;;;;;;;15.47;13.10;;;;;;;;;;5005071;28;20439;-77
2022/03/17 08:27:55;;;;;;;15.93;12.97;;;;;;;;;;5011189;28;20439;-78
2022/03/17 08:30:22;;;;;;;16.50;12.07;;;;;;;;;;5011284;28;20797;-76
2022/03/17 08:32:50;;;;;;;20.30;12.43;;;;;;;;;;5011328;28;20467;-76
2022/03/17 08:35:18;;;;;;;14.00;11.90;;;;;;;;;;5015503;28;20447;-76
2022/03/17 08:37:46;;;;;;;21.20;12.20;;;;;;;;;;5015493;28;20526;-76
2022/03/17 08:40:15;;;;;;;11.87;10.63;;;;;;;;;;5000478;28;20442;-77
2022/03/17 08:42:42;;;;;;;16.60;10.77;;;;;;;;;;5008393;28;20459;-76
2022/03/17 08:50:31;;;;;;;16.77;10.10;;;;;;;;;;4938240;29;20521;-76
2022/03/17 08:52:59;;;;;;;11.13;9.40;;;;;;;;;;4950803;29;20488;-78
2022/03/17 08:55:28;;;;;;;10.93;9.83;;;;;;;;;;4951052;29;20529;-79
2022/03/17 08:57:55;;;;;;;10.13;8.50;;;;;;;;;;4949984;29;20442;-77
2022/03/17 09:00:23;;;;;;;12.30;9.23;;;;;;;;;;4936268;29;20446;-77
2022/03/17 09:02:53;;;;;;;8.53;7.60;;;;;;;;;;4939802;29;20501;-77
2022/03/17 09:05:20;;;;;;;12.73;8.30;;;;;;;;;;4936303;29;20458;-76
2022/03/17 09:07:47;;;;;;;11.17;9.00;;;;;;;;;;4918519;29;20448;-78
2022/03/17 09:10:15;;;;;;;10.00;7.27;;;;;;;;;;4934127;29;20461;-77
2022/03/17 09:12:43;;;;;;;8.00;6.90;;;;;;;;;;4934516;29;20502;-76
2022/03/17 09:15:11;;;;;;;10.13;7.63;;;;;;;;;;4934174;29;20481;-77
2022/03/17 09:17:41;;;;;;;13.77;8.77;;;;;;;;;;4936427;29;20863;-77
2022/03/17 09:20:15;;;;;;;9.77;7.20;;;;;;;;;;4978513;28;20459;-77
2022/03/17 09:22:42;;;;;;;11.17;7.40;;;;;;;;;;4999138;28;20515;-77
2022/03/17 09:25:09;;;;;;;11.40;8.00;;;;;;;;;;5001945;28;20936;-78
2022/03/17 09:27:37;;;;;;;10.70;7.80;;;;;;;;;;4991259;28;20439;-77
2022/03/17 09:30:06;;;;;;;15.10;7.50;;;;;;;;;;5014132;28;20453;-77
2022/03/17 09:32:33;;;;;;;11.47;7.53;;;;;;;;;;5013963;28;20491;-78
2022/03/17 09:35:01;;;;;;;10.47;7.47;;;;;;;;;;5014003;28;20478;-81
2022/03/17 09:37:28;;;;;;;8.97;7.00;;;;;;;;;;5014464;28;20542;-75
2022/03/17 09:39:55;;;;;;;7.83;6.63;;;;;;;;;;5015287;28;20454;-78
2022/03/17 09:42:23;;;;;;;9.43;6.97;;;;;;;;;;4998196;28;20966;-75
2022/03/17 09:44:52;;;;;;;9.37;6.80;;;;;;;;;;4994702;28;20436;-75
2022/03/17 09:47:22;;;;;;;10.70;7.00;;;;;;;;;;4984472;28;20447;-75
2022/03/17 09:49:49;;;;;;;9.00;6.83;;;;;;;;;;4988839;28;22029;-75
2022/03/17 09:52:17;;;;;;;8.80;6.10;;;;;;;;;;4996105;28;20462;-77
2022/03/17 09:54:45;;;;;;;6.33;5.00;;;;;;;;;;5013237;28;20544;-75
2022/03/17 09:57:16;;;;;;;8.67;4.93;;;;;;;;;;5013693;28;20446;-76
2022/03/17 09:59:43;;;;;;;4.90;4.10;;;;;;;;;;4997319;28;20443;-74
2022/03/17 10:02:12;;;;;;;8.53;4.47;;;;;;;;;;4997147;28;20837;-76
2022/03/17 10:04:43;;;;;;;8.00;4.90;;;;;;;;;;5015563;28;20792;-76
2022/03/17 10:07:10;;;;;;;6.57;4.33;;;;;;;;;;5012866;28;20525;-75
2022/03/17 10:09:37;;;;;;;8.40;4.40;;;;;;;;;;5001255;28;20447;-76
2022/03/17 10:12:06;;;;;;;4.20;3.37;;;;;;;;;;5000479;28;20984;-76
2022/03/17 10:14:37;;;;;;;8.23;4.27;;;;;;;;;;4983597;28;20481;-74
2022/03/17 10:17:05;;;;;;;6.60;5.60;;;;;;;;;;5007990;28;20443;-76
2022/03/17 10:19:33;;;;;;;5.57;4.60;;;;;;;;;;4992583;28;20428;-75
2022/03/17 10:22:08;;;;;;;6.30;5.50;;;;;;;;;;4992647;28;20855;-75
2022/03/17 10:24:36;;;;;;;13.27;6.50;;;;;;;;;;4993390;28;20463;-75
2022/03/17 10:27:04;;;;;;;7.67;5.80;;;;;;;;;;4999800;28;20451;-78
2022/03/17 10:29:33;;;;;;;6.73;5.87;;;;;;;;;;4998344;28;20974;-76
2022/03/17 10:32:02;;;;;;;10.43;5.90;;;;;;;;;;5001789;28;20971;-77
2022/03/17 10:34:30;;;;;;;9.03;5.80;;;;;;;;;;5011726;28;20552;-75
2022/03/17 10:37:07;;;;;;;7.90;6.67;;;;;;;;;;5012116;28;20445;-75
2022/03/17 10:39:37;;;;;;;9.00;6.50;;;;;;;;;;5012484;28;20446;-76
2022/03/17 10:42:10;;;;;;;7.30;6.60;;;;;;;;;;5004137;28;20488;-74
2022/03/17 10:44:40;;;;;;;10.03;5.60;;;;;;;;;;4977080;28;20432;-74
2022/03/17 10:47:08;;;;;;;9.03;5.10;;;;;;;;;;4994505;28;20428;-73
2022/03/17 10:49:36;;;;;;;6.80;4.47;;;;;;;;;;4998558;28;20555;-77
2022/03/17 10:52:04;;;;;;;6.20;4.20;;;;;;;;;;4999783;28;20483;-75
2022/03/17 10:54:31;;;;;;;5.07;3.17;;;;;;;;;;5011146;28;20475;-74
2022/03/17 10:57:02;;;;;;;5.30;3.43;;;;;;;;;;5011620;28;20497;-74
2022/03/17 10:59:44;;;;;;;8.23;2.87;;;;;;;;;;5006137;28;20444;-74
2022/03/17 11:02:12;;;;;;;3.63;2.57;;;;;;;;;;4977737;28;20459;-74
2022/03/17 11:04:40;;;;;;;4.73;3.23;;;;;;;;;;4977890;28;20460;-74
2022/03/17 11:07:10;;;;;;;6.20;4.13;;;;;;;;;;5012498;28;20443;-76
2022/03/17 11:09:38;;;;;;;4.77;3.70;;;;;;;;;;5013023;28;20435;-75
2022/03/17 11:12:08;;;;;;;15.53;4.83;;;;;;;;;;4998958;28;20555;-75
2022/03/17 11:14:35;;;;;;;6.40;2.80;;;;;;;;;;5001028;28;20474;-74
2022/03/17 11:17:04;;;;;;;6.67;2.80;;;;;;;;;;5011243;28;20451;-76
2022/03/17 11:19:31;;;;;;;11.70;2.20;;;;;;;;;;5011101;28;20851;-74
2022/03/17 11:22:09;;;;;;;9.77;2.00;;;;;;;;;;5011188;28;20820;-77
2022/03/17 11:24:37;;;;;;;10.63;2.40;;;;;;;;;;5012033;28;20437;-76
2022/03/17 11:27:10;;;;;;;5.10;2.23;;;;;;;;;;4999114;28;20526;-76
2022/03/17 11:29:41;;;;;;;2.80;2.23;;;;;;;;;;4998445;28;20477;-75
2022/03/17 11:32:10;;;;;;;3.23;1.90;;;;;;;;;;5004357;28;20474;-75
2022/03/17 11:34:39;;;;;;;4.30;2.23;;;;;;;;;;4993452;28;21011;-75
2022/03/17 11:37:21;;;;;;;3.10;1.90;;;;;;;;;;5010865;28;20968;-75
2022/03/17 11:39:49;;;;;;;5.63;3.40;;;;;;;;;;5007556;28;20442;-76
2022/03/17 11:42:31;;;;;;;5.03;2.60;;;;;;;;;;5011008;28;20459;-76
2022/03/17 11:45:02;;;;;;;4.60;2.30;;;;;;;;;;4992978;28;20768;-75
2022/03/17 11:47:30;;;;;;;5.17;2.30;;;;;;;;;;4993259;28;20440;-75
2022/03/17 11:49:58;;;;;;;4.50;2.40;;;;;;;;;;4995672;28;20950;-78
2022/03/17 11:52:25;;;;;;;5.17;2.27;;;;;;;;;;4998257;28;20558;-78
2022/03/17 11:55:12;;;;;;;3.20;2.33;;;;;;;;;;4993766;28;20490;-76
2022/03/17 11:57:40;;;;;;;4.57;2.57;;;;;;;;;;4982763;28;20452;-76
2022/03/17 12:00:08;;;;;;;8.30;2.77;;;;;;;;;;4991259;28;20451;-76
2022/03/17 12:02:35;;;;;;;4.27;2.20;;;;;;;;;;5006516;28;20482;-76
2022/03/17 12:05:12;;;;;;;4.33;1.90;;;;;;;;;;5010480;28;20970;-76
2022/03/17 12:07:46;;;;;;;3.13;1.83;;;;;;;;;;4995388;28;20481;-78
2022/03/17 12:10:13;;;;;;;8.63;2.50;;;;;;;;;;5011475;28;20816;-77
2022/03/17 12:12:42;;;;;;;3.70;2.10;;;;;;;;;;5003508;28;20801;-76
2022/03/17 12:15:10;;;;;;;5.47;2.30;;;;;;;;;;4997912;28;20474;-76
2022/03/17 12:17:37;;;;;;;3.20;2.47;;;;;;;;;;5008713;28;20544;-76
2022/03/17 12:20:07;;;;;;;4.47;2.43;;;;;;;;;;5010994;28;20446;-76
2022/03/17 12:22:37;;;;;;;6.70;2.93;;;;;;;;;;5009976;28;20993;-74
2022/03/17 12:25:13;;;;;;;4.10;2.90;;;;;;;;;;4994808;28;20446;-76
2022/03/17 12:27:43;;;;;;;9.73;3.50;;;;;;;;;;5010645;28;20459;-73
2022/03/17 12:30:11;;;;;;;7.37;2.80;;;;;;;;;;5012778;28;20940;-73
2022/03/17 12:32:39;;;;;;;8.10;2.97;;;;;;;;;;5012380;28;20494;-76
2022/03/17 12:35:08;;;;;;;9.80;2.73;;;;;;;;;;5003542;28;20477;-72
2022/03/17 12:37:35;;;;;;;6.37;2.90;;;;;;;;;;4997654;28;20502;-75
2022/03/17 12:40:05;;;;;;;4.13;2.73;;;;;;;;;;4990803;28;20459;-74
2022/03/17 12:42:34;;;;;;;7.20;2.40;;;;;;;;;;5010844;28;20469;-74
2022/03/17 12:45:05;;;;;;;6.87;2.97;;;;;;;;;;5010839;28;20455;-75
2022/03/17 12:47:33;;;;;;;5.30;2.70;;;;;;;;;;5010810;28;20557;-74
2022/03/17 12:50:01;;;;;;;5.93;3.17;;;;;;;;;;5007768;28;20803;-74
2022/03/17 12:52:30;;;;;;;7.13;2.50;;;;;;;;;;4993269;28;20482;-76
2022/03/17 12:54:58;;;;;;;10.67;2.80;;;;;;;;;;4993607;28;20479;-73
2022/03/17 12:57:26;;;;;;;3.63;2.60;;;;;;;;;;4995250;28;20812;-74
2022/03/17 12:59:53;;;;;;;9.97;2.60;;;;;;;;;;4979114;28;20460;-77
2022/03/17 13:02:22;;;;;;;4.63;2.77;;;;;;;;;;4975432;28;20466;-80
2022/03/17 13:04:50;;;;;;;5.50;2.63;;;;;;;;;;4990721;28;20479;-79
2022/03/17 13:07:17;;;;;;;4.80;2.10;;;;;;;;;;4992162;28;20527;-81
2022/03/17 13:09:45;;;;;;;11.30;3.23;;;;;;;;;;5011175;28;20447;-77
2022/03/17 13:14:55;;;;;;;7.87;3.30;;;;;;;;;;5011210;28;20478;-76
2022/03/17 13:17:31;;;;;;;7.23;2.83;;;;;;;;;;4993204;28;21006;-76
2022/03/17 13:19:58;;;;;;;4.90;3.10;;;;;;;;;;5003743;28;20443;-77
2022/03/17 13:22:27;;;;;;;10.33;3.70;;;;;;;;;;4997154;28;20496;-77
2022/03/17 13:25:02;;;;;;;5.10;3.17;;;;;;;;;;5006860;28;20451;-77
2022/03/17 13:27:29;;;;;;;13.70;3.57;;;;;;;;;;5003380;28;20869;-77
2022/03/17 13:29:56;;;;;;;8.93;4.00;;;;;;;;;;4990790;28;20448;-77
2022/03/17 13:32:26;;;;;;;6.33;3.20;;;;;;;;;;5006170;28;20561;-78
2022/03/17 13:35:02;;;;;;;8.63;3.80;;;;;;;;;;5006449;28;20527;-77
2022/03/17 13:37:38;;;;;;;4.70;3.10;;;;;;;;;;4978867;28;20538;-77
2022/03/17 13:40:06;;;;;;;11.17;3.43;;;;;;;;;;4980748;28;20438;-78
2022/03/17 13:42:33;;;;;;;6.63;2.90;;;;;;;;;;5006402;28;20490;-77
2022/03/17 13:45:01;;;;;;;6.83;3.23;;;;;;;;;;4990386;28;20539;-76
2022/03/17 13:47:29;;;;;;;6.00;2.90;;;;;;;;;;5017453;28;20462;-77
2022/03/17 13:50:11;;;;;;;9.97;3.40;;;;;;;;;;5031877;28;20453;-76
2022/03/17 13:52:40;;;;;;;5.73;3.13;;;;;;;;;;5002059;28;20846;-77
2022/03/17 13:55:09;;;;;;;7.20;3.63;;;;;;;;;;5006843;28;20486;-77
2022/03/17 13:57:36;;;;;;;5.97;2.87;;;;;;;;;;4984135;28;20443;-77
2022/03/17 14:00:13;;;;;;;12.63;3.20;;;;;;;;;;4986498;28;21050;-75
2022/03/17 14:02:40;;;;;;;12.47;3.80;;;;;;;;;;5010172;28;20888;-77
2022/03/17 14:05:13;;;;;;;7.97;3.50;;;;;;;;;;5012706;28;20462;-80
2022/03/17 14:07:42;;;;;;;14.80;3.40;;;;;;;;;;5014121;28;20541;-81
2022/03/17 14:10:10;;;;;;;7.80;3.23;;;;;;;;;;5012971;28;20473;-77
2022/03/17 14:12:39;;;;;;;9.00;3.43;;;;;;;;;;5008814;28;20994;-79
2022/03/17 14:15:07;;;;;;;9.67;3.33;;;;;;;;;;5000630;28;20831;-80
2022/03/17 14:17:34;;;;;;;8.83;3.30;;;;;;;;;;5008822;28;20454;-78
2022/03/17 14:20:02;;;;;;;5.53;2.93;;;;;;;;;;5013094;28;20446;-78
2022/03/17 14:25:12;;;;;;;3.93;3.03;;;;;;;;;;5000394;28;20440;-77
2022/03/17 14:27:39;;;;;;;4.57;3.00;;;;;;;;;;4993408;28;20454;-78
2022/03/17 14:30:07;;;;;;;10.70;3.13;;;;;;;;;;4995484;28;20454;-77
2022/03/17 14:32:35;;;;;;;7.00;3.00;;;;;;;;;;4995305;28;20467;-76
2022/03/17 14:35:02;;;;;;;11.43;3.40;;;;;;;;;;4997234;28;20948;-77
2022/03/17 14:37:32;;;;;;;5.93;3.10;;;;;;;;;;5000590;28;20494;-78
2022/03/17 14:39:59;;;;;;;8.30;2.73;;;;;;;;;;4996341;28;20448;-78
2022/03/17 14:42:29;;;;;;;9.87;3.13;;;;;;;;;;4998751;28;20980;-82
2022/03/17 14:44:56;;;;;;;8.63;2.87;;;;;;;;;;4995065;28;20463;-76
2022/03/17 14:47:23;;;;;;;7.27;2.50;;;;;;;;;;5005377;28;20458;-77
2022/03/17 14:49:50;;;;;;;7.50;2.80;;;;;;;;;;4999650;28;20488;-73
2022/03/17 14:52:18;;;;;;;8.57;3.03;;;;;;;;;;5003152;28;20460;-75